ZIH weather

Ixtapa Zihuatanejo International Airport
Ixtapa, Guerrero, Mexico

Public forecast

Using degrees Celsius for public forecast. Weather courtesy of forecast.io.

Current aviation weather report (METAR) for Ixtapa Zihuatanejo International Airport

Retrieved 2019/10/18 20:43 UTC (10 minutes ago):

MMZH 182043Z 12006KT 7SM SCT020 SCT080 BKN250 30/23 A2982 RMK SLP089 57024 900 8/132 LWR SC E

Aviation forecast (TAF) for Ixtapa Zihuatanejo International Airport

Retrieved 2019/10/18 18:36 UTC (2 hours ago):

TAF MMZH 181633Z 1818/1918 20012KT P6SM SCT020 BKN250 VC CB TEMPO 1822/1902 3SM TSRA BKN010CB FM190300 18010KT 5SM RA BKN020 OVC080 FM190600 12010KT 5SM VC RA BKN020CB OVC080 TEMPO 1911/1915 2SM TSRA OVC010CB